createdAt,value
2023-03-05T00:00:37.345Z,80.31
2023-03-05T00:01:36.903Z,80.31
2023-03-05T00:02:36.171Z,80.33
2023-03-05T00:03:36.432Z,80.43
2023-03-05T00:04:35.554Z,80.44
2023-03-05T00:05:35.780Z,80.33
2023-03-05T00:06:41.081Z,80.36
2023-03-05T00:07:35.423Z,80.37
2023-03-05T00:08:36.521Z,80.40
2023-03-05T00:09:36.130Z,80.47
2023-03-05T00:10:35.732Z,80.5
2023-03-05T00:11:36.025Z,80.53
2023-03-05T00:12:35.044Z,80.41
2023-03-05T00:13:35.728Z,80.20
2023-03-05T00:14:35.288Z,80.20
2023-03-05T00:15:35.966Z,80.25
2023-03-05T00:16:36.205Z,80.18
2023-03-05T00:17:35.414Z,80.23
2023-03-05T00:18:35.619Z,80.14
2023-03-05T00:19:36.040Z,80.01
2023-03-05T00:20:35.084Z,79.97
2023-03-05T00:21:36.034Z,80.03
2023-03-05T00:22:36.244Z,80.08
2023-03-05T00:23:35.989Z,80.21
2023-03-05T00:24:36.435Z,80.31
2023-03-05T00:25:35.823Z,80.27
2023-03-05T00:26:50.441Z,80.23
2023-03-05T00:27:36.541Z,80.23
2023-03-05T00:28:35.824Z,80.27
2023-03-05T00:29:35.512Z,80.28
2023-03-05T00:30:36.247Z,80.23
2023-03-05T00:31:36.142Z,80.24
2023-03-05T00:32:35.988Z,80.26
2023-03-05T00:33:35.205Z,80.33
2023-03-05T00:34:35.494Z,80.38
2023-03-05T00:35:36.217Z,80.33
2023-03-05T00:36:36.144Z,80.33
2023-03-05T00:37:36.141Z,80.38
2023-03-05T00:38:35.763Z,80.30
2023-03-05T00:39:36.332Z,80.30
2023-03-05T00:40:36.380Z,80.27
2023-03-05T00:41:36.337Z,80.32
2023-03-05T00:42:35.938Z,80.37
2023-03-05T00:43:37.061Z,80.39
2023-03-05T00:44:35.373Z,80.36
2023-03-05T00:45:36.592Z,80.37
2023-03-05T00:46:35.972Z,80.38
2023-03-05T00:47:35.284Z,80.46
2023-03-05T00:48:35.797Z,80.47
2023-03-05T00:49:36.581Z,80.44
2023-03-05T00:50:37.318Z,80.40
2023-03-05T00:51:35.881Z,80.39
2023-03-05T00:52:36.568Z,80.36
2023-03-05T00:53:36.058Z,80.28
2023-03-05T00:54:35.768Z,80.16
2023-03-05T00:55:36.371Z,80.14
2023-03-05T00:56:35.611Z,80.07
2023-03-05T00:57:35.725Z,80.12
2023-03-05T00:58:36.386Z,80.21
2023-03-05T00:59:35.178Z,80.16
2023-03-05T01:00:36.667Z,80.20
2023-03-05T01:01:40.320Z,80.18
2023-03-05T01:02:35.705Z,80.14
2023-03-05T01:03:36.153Z,80.17
2023-03-05T01:04:35.905Z,80.06
2023-03-05T01:05:36.959Z,79.98
2023-03-05T01:06:35.704Z,79.91
2023-03-05T01:07:35.499Z,79.80
2023-03-05T01:08:35.587Z,79.74
2023-03-05T01:09:35.456Z,79.64
2023-03-05T01:10:36.069Z,79.48
2023-03-05T01:11:35.271Z,79.33
2023-03-05T01:12:35.670Z,79.33
2023-03-05T01:13:35.786Z,79.12
2023-03-05T01:14:35.361Z,79.11
2023-03-05T01:15:35.404Z,79.10
2023-03-05T01:16:35.540Z,79.08
2023-03-05T01:17:36.828Z,79.06
2023-03-05T01:18:36.123Z,79.02
2023-03-05T01:19:35.556Z,78.91
2023-03-05T01:20:36.344Z,78.88
2023-03-05T01:21:35.581Z,78.86
2023-03-05T01:22:35.492Z,78.83
2023-03-05T01:23:35.835Z,78.80
2023-03-05T01:24:35.366Z,78.75
2023-03-05T01:25:35.255Z,78.73
2023-03-05T01:26:35.350Z,78.75
2023-03-05T01:27:35.768Z,78.75
2023-03-05T01:28:36.087Z,78.70
2023-03-05T01:29:35.521Z,78.63
2023-03-05T01:30:35.533Z,78.65
2023-03-05T01:31:35.529Z,78.56
2023-03-05T01:32:36.276Z,78.58
2023-03-05T01:33:35.698Z,78.58
2023-03-05T01:34:35.467Z,78.59
2023-03-05T01:35:35.873Z,78.51
2023-03-05T01:36:35.952Z,78.49
2023-03-05T01:37:35.526Z,78.49
2023-03-05T01:38:35.420Z,78.48
2023-03-05T01:39:35.002Z,78.34
2023-03-05T01:40:34.812Z,78.36
2023-03-05T01:41:35.620Z,78.44
2023-03-05T01:42:35.033Z,78.42
2023-03-05T01:43:34.809Z,78.21
2023-03-05T01:44:35.740Z,77.98
2023-03-05T01:45:35.904Z,77.74
2023-03-05T01:46:35.095Z,77.76
2023-03-05T01:47:35.196Z,77.79
2023-03-05T01:48:36.231Z,77.74
2023-03-05T01:49:35.740Z,77.70
2023-03-05T01:50:36.128Z,77.65
2023-03-05T01:51:35.129Z,77.38
2023-03-05T01:52:35.887Z,77.14
2023-03-05T01:53:36.087Z,77.06
2023-03-05T01:54:35.227Z,77.18
2023-03-05T01:55:35.685Z,77.27
2023-03-05T01:56:35.922Z,77.16
2023-03-05T01:57:35.994Z,76.86
2023-03-05T01:58:35.788Z,76.84
2023-03-05T01:59:35.463Z,76.82
2023-03-05T02:00:37.268Z,76.84
2023-03-05T02:01:37.175Z,76.85
2023-03-05T02:02:36.291Z,76.86
2023-03-05T02:03:36.043Z,76.59
2023-03-05T02:04:36.147Z,76.36
2023-03-05T02:05:35.625Z,76.41
2023-03-05T02:06:35.748Z,76.49
2023-03-05T02:07:35.944Z,76.37
2023-03-05T02:08:36.086Z,76.23
2023-03-05T02:09:36.073Z,76.28
2023-03-05T02:10:36.226Z,76.19
2023-03-05T02:11:36.104Z,76.09
2023-03-05T02:12:36.662Z,76.09
2023-03-05T02:13:36.689Z,76.23
2023-03-05T02:14:36.040Z,76.27
2023-03-05T02:15:35.781Z,76.26
2023-03-05T02:16:35.792Z,76.19
2023-03-05T02:17:35.117Z,75.90
2023-03-05T02:18:34.617Z,75.64
2023-03-05T02:19:34.782Z,75.64
2023-03-05T02:20:35.356Z,75.56
2023-03-05T02:21:34.564Z,75.65
2023-03-05T02:22:35.433Z,75.47
2023-03-05T02:23:35.158Z,75.12
2023-03-05T02:24:35.268Z,74.96
2023-03-05T02:25:34.955Z,75.12
2023-03-05T02:26:35.228Z,75.25
2023-03-05T02:27:39.898Z,75.24
2023-03-05T02:28:35.567Z,75.23
2023-03-05T02:29:35.202Z,74.99
2023-03-05T02:30:34.831Z,74.66
2023-03-05T02:31:40.204Z,74.72
2023-03-05T02:32:35.684Z,74.50
2023-03-05T02:33:35.283Z,74.44
2023-03-05T02:34:34.899Z,74.34
2023-03-05T02:35:35.293Z,74.07
2023-03-05T02:36:34.920Z,73.97
2023-03-05T02:37:34.971Z,74.15
2023-03-05T02:38:34.689Z,74.03
2023-03-05T02:39:34.486Z,73.81
2023-03-05T02:40:35.504Z,73.74
2023-03-05T02:41:34.797Z,73.52
2023-03-05T02:42:34.953Z,73.63
2023-03-05T02:43:35.774Z,73.56
2023-03-05T02:44:34.761Z,73.67
2023-03-05T02:45:35.602Z,73.77
2023-03-05T02:46:35.686Z,73.5
2023-03-05T02:47:35.468Z,72.66
2023-03-05T02:48:35.448Z,72.44
2023-03-05T02:49:34.648Z,72.36
2023-03-05T02:50:35.377Z,72.19
2023-03-05T02:51:35.451Z,72.12
2023-03-05T02:52:34.899Z,72.08
2023-03-05T02:53:35.132Z,72.18
2023-03-05T02:54:34.818Z,72.19
2023-03-05T02:55:35.460Z,72.07
2023-03-05T02:56:34.174Z,72.12
2023-03-05T02:57:34.941Z,72.22
2023-03-05T02:58:35.417Z,72.22
2023-03-05T02:59:35.709Z,72.21
2023-03-05T03:00:38.741Z,72.25
2023-03-05T03:01:37.445Z,72.32
2023-03-05T03:02:35.097Z,72.37
2023-03-05T03:03:35.130Z,72.44
2023-03-05T03:04:34.506Z,72.16
2023-03-05T03:05:35.211Z,71.84
2023-03-05T03:06:35.128Z,71.94
2023-03-05T03:07:34.831Z,71.98
2023-03-05T03:08:35.662Z,71.81
2023-03-05T03:09:35.348Z,71.88
2023-03-05T03:10:35.198Z,71.93
2023-03-05T03:11:34.832Z,72.09
2023-03-05T03:12:35.264Z,72.03
2023-03-05T03:13:34.511Z,71.81
2023-03-05T03:14:34.808Z,71.87
2023-03-05T03:15:35.517Z,71.94
2023-03-05T03:16:34.773Z,71.78
2023-03-05T03:17:34.787Z,71.44
2023-03-05T03:18:35.272Z,71.40
2023-03-05T03:19:34.388Z,71.55
2023-03-05T03:20:34.810Z,71.72
2023-03-05T03:21:35.253Z,71.76
2023-03-05T03:22:34.624Z,71.73
2023-03-05T03:23:36.045Z,72.03
2023-03-05T03:24:34.592Z,72.21
2023-03-05T03:25:36.315Z,72.18
2023-03-05T03:26:35.329Z,72.35
2023-03-05T03:27:35.488Z,72.31
2023-03-05T03:28:34.867Z,72.30
2023-03-05T03:29:35.221Z,72.29
2023-03-05T03:30:36.623Z,72.29
2023-03-05T03:31:35.668Z,72.14
2023-03-05T03:32:35.027Z,72.17
2023-03-05T03:33:34.577Z,72.42
2023-03-05T03:34:35.319Z,72.68
2023-03-05T03:35:35.611Z,72.90
2023-03-05T03:36:34.677Z,73.10
2023-03-05T03:37:35.159Z,73.25
2023-03-05T03:38:34.710Z,73.41
2023-03-05T03:39:35.073Z,73.63
2023-03-05T03:40:35.120Z,73.87
2023-03-05T03:41:34.385Z,74.03
2023-03-05T03:42:34.536Z,74.13
2023-03-05T03:43:35.121Z,74.23
2023-03-05T03:44:34.520Z,74.36
2023-03-05T03:45:35.285Z,74.55
2023-03-05T03:46:35.329Z,74.70
2023-03-05T03:47:34.379Z,74.86
2023-03-05T03:48:34.680Z,74.95
2023-03-05T03:49:34.337Z,75.10
2023-03-05T03:50:35.380Z,75.32
2023-03-05T03:51:34.770Z,75.53
2023-03-05T03:52:35.048Z,75.75
2023-03-05T03:53:34.866Z,75.90
2023-03-05T03:54:35.309Z,75.93
2023-03-05T03:55:35.380Z,76.10
2023-03-05T03:56:34.517Z,76.21
2023-03-05T03:57:35.252Z,76.28
2023-03-05T03:58:35.432Z,76.36
2023-03-05T03:59:34.499Z,76.44
2023-03-05T04:00:36.440Z,76.52
2023-03-05T04:01:35.462Z,76.75
2023-03-05T04:02:34.483Z,76.87
2023-03-05T04:03:35.406Z,76.94
2023-03-05T04:04:35.241Z,76.95
2023-03-05T04:05:35.463Z,77.08
2023-03-05T04:06:34.822Z,77.11
2023-03-05T04:07:35.179Z,77.21
2023-03-05T04:08:35.000Z,77.26
2023-03-05T04:09:35.748Z,77.30
2023-03-05T04:10:36.124Z,77.34
2023-03-05T04:11:35.536Z,77.49
2023-03-05T04:12:35.579Z,77.60
2023-03-05T04:13:34.621Z,77.54
2023-03-05T04:14:34.924Z,77.57
2023-03-05T04:15:36.102Z,77.59
2023-03-05T04:16:35.137Z,77.54
2023-03-05T04:17:35.047Z,77.58
2023-03-05T04:18:35.338Z,77.62
2023-03-05T04:19:34.775Z,77.66
2023-03-05T04:20:35.449Z,77.75
2023-03-05T04:21:34.359Z,77.71
2023-03-05T04:22:34.383Z,77.84
2023-03-05T04:23:35.026Z,77.68
2023-03-05T04:24:34.604Z,77.71
2023-03-05T04:25:34.859Z,77.65
2023-03-05T04:26:34.943Z,77.56
2023-03-05T04:27:34.742Z,77.55
2023-03-05T04:28:35.346Z,77.56
2023-03-05T04:29:34.783Z,77.59
2023-03-05T04:30:35.567Z,77.70
2023-03-05T04:31:34.816Z,77.79
2023-03-05T04:32:34.708Z,77.73
2023-03-05T04:33:35.253Z,77.74
2023-03-05T04:34:34.581Z,77.81
2023-03-05T04:35:35.449Z,77.70
2023-03-05T04:36:35.290Z,77.75
2023-03-05T04:37:34.730Z,77.77
2023-03-05T04:38:34.875Z,77.88
2023-03-05T04:39:34.760Z,77.89
2023-03-05T04:40:35.682Z,77.92
2023-03-05T04:41:35.301Z,77.99
2023-03-05T04:42:34.512Z,78.02
2023-03-05T04:43:34.944Z,78.07
2023-03-05T04:44:35.413Z,78.08
2023-03-05T04:45:35.215Z,78.02
2023-03-05T04:46:35.580Z,78.02
2023-03-05T04:47:35.227Z,78.02
2023-03-05T04:48:34.346Z,78.02
2023-03-05T04:49:34.727Z,78.03
2023-03-05T04:50:35.609Z,78.03
2023-03-05T04:51:34.656Z,78.09
2023-03-05T04:52:34.453Z,78.12
2023-03-05T04:53:35.318Z,78.15
2023-03-05T04:54:34.004Z,78.15
2023-03-05T04:55:34.305Z,78.20
2023-03-05T04:56:34.523Z,78.23
2023-03-05T04:57:36.979Z,78.21
2023-03-05T04:58:34.899Z,78.31
2023-03-05T04:59:35.363Z,78.42
2023-03-05T05:00:41.277Z,78.48
2023-03-05T05:01:35.340Z,78.51
2023-03-05T05:02:35.494Z,78.55
2023-03-05T05:03:35.417Z,78.53
2023-03-05T05:04:34.775Z,78.60
2023-03-05T05:05:35.775Z,78.67
2023-03-05T05:06:35.400Z,78.70
2023-03-05T05:07:34.703Z,78.72
2023-03-05T05:08:34.907Z,78.79
2023-03-05T05:09:35.147Z,78.82
2023-03-05T05:10:34.361Z,78.84
2023-03-05T05:11:34.930Z,78.94
2023-03-05T05:12:35.686Z,78.95
2023-03-05T05:13:35.031Z,79.04
2023-03-05T05:14:35.420Z,79.14
2023-03-05T05:15:36.191Z,79.19
2023-03-05T05:16:34.333Z,79.23
2023-03-05T05:17:34.586Z,79.31
2023-03-05T05:18:36.053Z,79.33
2023-03-05T05:19:33.930Z,79.35
2023-03-05T05:20:35.192Z,79.34
2023-03-05T05:21:34.698Z,79.46
2023-03-05T05:22:35.168Z,79.55
2023-03-05T05:23:35.490Z,79.63
2023-03-05T05:24:39.788Z,79.66
2023-03-05T05:25:36.246Z,79.72
2023-03-05T05:26:34.917Z,79.79
2023-03-05T05:27:35.818Z,79.90
2023-03-05T05:28:35.653Z,80.03
2023-03-05T05:29:35.774Z,80.06
2023-03-05T05:30:35.785Z,80.08
2023-03-05T05:31:34.926Z,80.18
2023-03-05T05:32:34.608Z,80.30
2023-03-05T05:33:35.785Z,80.36
2023-03-05T05:34:35.253Z,80.43
2023-03-05T05:35:33.528Z,80.43
2023-03-05T05:36:35.381Z,80.58
2023-03-05T05:37:35.392Z,80.66
2023-03-05T05:38:35.052Z,80.72
2023-03-05T05:39:34.468Z,80.75
2023-03-05T05:40:35.318Z,80.85
2023-03-05T05:41:34.848Z,80.91
2023-03-05T05:42:35.042Z,81.12
2023-03-05T05:43:34.712Z,81.26
2023-03-05T05:44:35.012Z,81.41
2023-03-05T05:45:34.856Z,81.62
2023-03-05T05:46:35.647Z,81.73
2023-03-05T05:47:34.456Z,81.73
2023-03-05T05:49:03.921Z,81.77
2023-03-05T05:49:35.953Z,81.96
2023-03-05T05:50:35.148Z,82.13
2023-03-05T05:51:34.571Z,82.25
2023-03-05T05:52:34.994Z,82.23
2023-03-05T05:53:34.900Z,82.37
2023-03-05T05:54:36.257Z,82.53
2023-03-05T05:55:35.500Z,82.65
2023-03-05T05:56:34.830Z,82.73
2023-03-05T05:57:35.876Z,82.82
2023-03-05T05:58:35.458Z,82.99
2023-03-05T05:59:35.247Z,83.12
2023-03-05T06:01:05.693Z,83.31
2023-03-05T06:01:37.775Z,83.34
2023-03-05T06:02:35.818Z,83.45
2023-03-05T06:03:35.468Z,83.52
2023-03-05T06:04:35.110Z,83.68
2023-03-05T06:05:34.952Z,83.73
2023-03-05T06:06:35.766Z,83.77
2023-03-05T06:07:35.075Z,83.82
2023-03-05T06:08:35.464Z,83.80
2023-03-05T06:09:34.756Z,83.93
2023-03-05T06:10:35.346Z,84.06
2023-03-05T06:11:34.665Z,84.10
2023-03-05T06:12:36.033Z,84.15
2023-03-05T06:13:35.692Z,84.15
2023-03-05T06:14:35.886Z,84.18
2023-03-05T06:15:35.109Z,84.25
2023-03-05T06:16:34.940Z,84.26
2023-03-05T06:17:43.989Z,84.15
2023-03-05T06:18:34.715Z,84.20
2023-03-05T06:19:35.812Z,84.30
2023-03-05T06:20:35.932Z,84.33
2023-03-05T06:21:35.818Z,84.23
2023-03-05T06:22:36.555Z,84.24
2023-03-05T06:23:35.833Z,84.29
2023-03-05T06:24:36.516Z,84.38
2023-03-05T06:25:35.437Z,84.36
2023-03-05T06:26:34.279Z,84.25
2023-03-05T06:27:34.997Z,84.17
2023-03-05T06:28:34.860Z,84.27
2023-03-05T06:29:34.875Z,84.30
2023-03-05T06:30:35.558Z,84.30
2023-03-05T06:31:37.273Z,84.38
2023-03-05T06:32:35.171Z,84.36
2023-03-05T06:33:34.834Z,84.39
2023-03-05T06:34:34.848Z,84.41
2023-03-05T06:35:35.452Z,84.49
2023-03-05T06:36:34.968Z,84.48
2023-03-05T06:37:35.341Z,84.45
2023-03-05T06:38:34.537Z,84.46
2023-03-05T06:39:34.588Z,84.55
2023-03-05T06:40:34.835Z,84.59
2023-03-05T06:41:35.422Z,84.64
2023-03-05T06:42:35.120Z,84.59
2023-03-05T06:43:35.192Z,84.54
2023-03-05T06:44:34.841Z,84.51
2023-03-05T06:45:35.604Z,84.49
2023-03-05T06:46:35.127Z,84.57
2023-03-05T06:47:35.302Z,84.55
2023-03-05T06:48:34.649Z,84.45
2023-03-05T06:49:34.787Z,84.43
2023-03-05T06:50:36.401Z,84.42
2023-03-05T06:51:34.986Z,84.48
2023-03-05T06:52:34.464Z,84.51
2023-03-05T06:53:34.776Z,84.53
2023-03-05T06:54:35.121Z,84.55
2023-03-05T06:55:35.218Z,84.41
2023-03-05T06:56:34.749Z,84.36
2023-03-05T06:57:34.963Z,84.42
2023-03-05T06:58:36.102Z,84.44
2023-03-05T06:59:36.188Z,84.36
2023-03-05T07:00:37.478Z,84.28
2023-03-05T07:01:36.487Z,84.16
2023-03-05T07:02:35.930Z,84.13
2023-03-05T07:03:35.957Z,84.11
2023-03-05T07:04:35.544Z,84.13
2023-03-05T07:05:35.537Z,84.16
2023-03-05T07:06:35.039Z,84.24
2023-03-05T07:07:34.918Z,84.20
2023-03-05T07:08:35.970Z,84.12
2023-03-05T07:09:36.014Z,84.12
2023-03-05T07:10:35.192Z,84.09
2023-03-05T07:11:35.449Z,84.18
2023-03-05T07:12:35.199Z,84.23
2023-03-05T07:13:35.263Z,84.22
2023-03-05T07:14:35.346Z,84.25
2023-03-05T07:15:36.414Z,84.30
2023-03-05T07:16:36.008Z,84.27
2023-03-05T07:17:34.792Z,84.22
2023-03-05T07:18:36.103Z,84.21
2023-03-05T07:19:35.695Z,84.15
2023-03-05T07:20:35.502Z,84.13
2023-03-05T07:21:38.247Z,84.18
2023-03-05T07:22:35.135Z,84.18
2023-03-05T07:23:35.306Z,84.02
2023-03-05T07:24:34.992Z,83.97
2023-03-05T07:25:35.195Z,83.92
2023-03-05T07:26:35.598Z,83.90
2023-03-05T07:27:35.614Z,83.89
2023-03-05T07:28:35.969Z,83.93
2023-03-05T07:29:35.823Z,83.94
2023-03-05T07:30:36.228Z,83.97
2023-03-05T07:31:42.642Z,84.01
2023-03-05T07:32:35.406Z,83.97
2023-03-05T07:33:35.139Z,83.90
2023-03-05T07:34:35.117Z,83.89
2023-03-05T07:35:35.989Z,83.92
2023-03-05T07:36:35.352Z,83.88
2023-03-05T07:37:35.158Z,84.00
2023-03-05T07:38:34.932Z,83.99
2023-03-05T07:39:35.624Z,84.00
2023-03-05T07:40:36.395Z,83.98
2023-03-05T07:41:35.548Z,83.96
2023-03-05T07:42:35.688Z,83.94
2023-03-05T07:43:35.617Z,83.86
2023-03-05T07:44:35.493Z,83.88
2023-03-05T07:45:36.358Z,83.87
2023-03-05T07:46:34.866Z,83.89
2023-03-05T07:47:36.047Z,83.88
2023-03-05T07:48:35.584Z,83.83
2023-03-05T07:49:35.164Z,83.74
2023-03-05T07:50:35.695Z,83.71
2023-03-05T07:51:35.545Z,83.70
2023-03-05T07:52:34.963Z,83.70
2023-03-05T07:53:36.147Z,83.63
2023-03-05T07:54:35.502Z,83.64
2023-03-05T07:55:35.682Z,83.63
2023-03-05T07:56:36.022Z,83.59
2023-03-05T07:57:34.927Z,83.63
2023-03-05T07:58:36.594Z,83.64
2023-03-05T07:59:36.091Z,83.63
2023-03-05T08:00:36.874Z,83.66
2023-03-05T08:01:37.261Z,83.72
2023-03-05T08:02:35.705Z,83.74
2023-03-05T08:03:35.809Z,83.77
2023-03-05T08:04:36.208Z,83.72
2023-03-05T08:05:35.990Z,83.72
2023-03-05T08:06:35.465Z,83.76
2023-03-05T08:07:35.584Z,83.73
2023-03-05T08:08:35.677Z,83.72
2023-03-05T08:09:35.780Z,83.76
2023-03-05T08:10:36.171Z,83.84
2023-03-05T08:11:34.972Z,83.82
2023-03-05T08:12:36.375Z,83.84
2023-03-05T08:13:49.597Z,83.84
2023-03-05T08:14:34.997Z,83.75
2023-03-05T08:15:35.951Z,83.58
2023-03-05T08:16:36.448Z,83.52
2023-03-05T08:17:34.592Z,83.43
2023-03-05T08:18:36.111Z,83.44
2023-03-05T08:19:34.778Z,83.38
2023-03-05T08:20:35.618Z,83.30
2023-03-05T08:21:35.603Z,83.16
2023-03-05T08:22:35.403Z,83.04
2023-03-05T08:23:34.800Z,83.01
2023-03-05T08:24:35.473Z,82.96
2023-03-05T08:25:35.540Z,82.91
2023-03-05T08:26:35.587Z,82.82
2023-03-05T08:27:34.998Z,82.72
2023-03-05T08:28:35.000Z,82.61
2023-03-05T08:29:35.011Z,82.49
2023-03-05T08:30:36.015Z,82.39
2023-03-05T08:31:35.287Z,82.24
2023-03-05T08:32:35.712Z,82.23
2023-03-05T08:33:36.014Z,82.25
2023-03-05T08:35:34.593Z,82.07
2023-03-05T08:36:35.630Z,81.83
2023-03-05T08:37:35.461Z,81.60
2023-03-05T08:38:35.210Z,81.34
2023-03-05T08:39:34.984Z,81.20
2023-03-05T08:40:35.756Z,80.77
2023-03-05T08:41:35.802Z,80.55
2023-03-05T08:42:36.630Z,80.52
2023-03-05T08:43:35.748Z,80.53
2023-03-05T08:44:35.701Z,80.51
2023-03-05T08:45:35.238Z,80.42
2023-03-05T08:46:35.995Z,80.27
2023-03-05T08:47:35.405Z,80.16
2023-03-05T08:48:35.847Z,80.18
2023-03-05T08:49:35.548Z,80.20
2023-03-05T08:50:38.071Z,80.20
2023-03-05T08:51:35.902Z,80.10
2023-03-05T08:52:35.355Z,80.05
2023-03-05T08:53:35.243Z,80.01
2023-03-05T08:54:34.454Z,79.96
2023-03-05T08:55:34.938Z,79.94
2023-03-05T08:56:35.361Z,79.93
2023-03-05T08:57:35.016Z,79.93
2023-03-05T08:58:34.572Z,79.86
2023-03-05T08:59:35.200Z,79.87
2023-03-05T09:00:37.446Z,79.84
2023-03-05T09:01:36.605Z,79.84
2023-03-05T09:02:35.505Z,79.75
2023-03-05T09:03:35.993Z,79.68
2023-03-05T09:04:34.583Z,79.59
2023-03-05T09:05:37.211Z,79.48
2023-03-05T09:06:35.391Z,79.39
2023-03-05T09:07:35.074Z,79.25
2023-03-05T09:08:35.308Z,79.07
2023-03-05T09:09:34.946Z,78.75
2023-03-05T09:10:36.500Z,78.61
2023-03-05T09:11:35.106Z,78.55
2023-03-05T09:12:35.362Z,78.43
2023-03-05T09:13:35.119Z,78.38
2023-03-05T09:14:35.077Z,78.33
2023-03-05T09:15:34.996Z,78.09
2023-03-05T09:16:35.147Z,78.10
2023-03-05T09:17:35.234Z,78.07
2023-03-05T09:18:35.769Z,78.08
2023-03-05T09:19:35.367Z,77.93
2023-03-05T09:20:35.648Z,78.01
2023-03-05T09:21:35.348Z,77.93
2023-03-05T09:22:35.468Z,77.93
2023-03-05T09:23:35.773Z,77.86
2023-03-05T09:24:35.869Z,77.68
2023-03-05T09:25:36.266Z,77.82
2023-03-05T09:26:34.886Z,77.90
2023-03-05T09:27:36.009Z,77.69
2023-03-05T09:28:34.635Z,77.70
2023-03-05T09:29:34.680Z,77.55
2023-03-05T09:30:35.655Z,77.23
2023-03-05T09:31:35.147Z,76.79
2023-03-05T09:32:35.686Z,76.48
2023-03-05T09:33:35.427Z,76.14
2023-03-05T09:34:35.202Z,75.87
2023-03-05T09:35:35.207Z,75.63
2023-03-05T09:36:35.005Z,75.80
2023-03-05T09:37:35.653Z,75.83
2023-03-05T09:38:35.585Z,75.76
2023-03-05T09:39:35.922Z,75.85
2023-03-05T09:40:35.607Z,75.90
2023-03-05T09:41:35.985Z,75.98
2023-03-05T09:42:34.694Z,75.86
2023-03-05T09:43:35.748Z,75.72
2023-03-05T09:44:35.471Z,75.73
2023-03-05T09:45:37.069Z,75.38
2023-03-05T09:46:35.003Z,75.44
2023-03-05T09:48:35.537Z,75.38
2023-03-05T09:49:35.407Z,75.22
2023-03-05T09:50:35.542Z,75.54
2023-03-05T09:51:35.560Z,75.29
2023-03-05T09:52:35.483Z,75.20
2023-03-05T09:53:35.662Z,75.09
2023-03-05T09:54:35.348Z,74.96
2023-03-05T09:55:35.367Z,74.95
2023-03-05T09:56:35.028Z,74.98
2023-03-05T09:57:34.781Z,74.91
2023-03-05T09:58:44.021Z,74.87
2023-03-05T09:59:34.920Z,75.05
2023-03-05T10:00:36.863Z,75.02
2023-03-05T10:01:35.812Z,75.06
2023-03-05T10:02:35.400Z,74.80
2023-03-05T10:03:35.623Z,74.63
2023-03-05T10:04:35.003Z,74.53
2023-03-05T10:05:35.435Z,74.27
2023-03-05T10:06:35.382Z,74.03
2023-03-05T10:07:35.278Z,73.94
2023-03-05T10:08:35.488Z,73.87
2023-03-05T10:09:36.893Z,73.98
2023-03-05T10:10:35.796Z,74.11
2023-03-05T10:11:35.515Z,74.19
2023-03-05T10:12:35.529Z,74.24
2023-03-05T10:13:35.278Z,74.36
2023-03-05T10:14:35.487Z,74.31
2023-03-05T10:15:36.049Z,74.22
2023-03-05T10:16:39.795Z,74.26
2023-03-05T10:17:35.828Z,74.30
2023-03-05T10:18:35.943Z,74.40
2023-03-05T10:19:36.092Z,74.42
2023-03-05T10:20:39.339Z,74.42
2023-03-05T10:21:35.409Z,74.38
2023-03-05T10:22:35.285Z,74.30
2023-03-05T10:23:35.102Z,74.13
2023-03-05T10:24:34.888Z,74.20
2023-03-05T10:25:35.839Z,74.21
2023-03-05T10:26:35.825Z,74.23
2023-03-05T10:27:36.013Z,74.26
2023-03-05T10:28:35.128Z,74.78
2023-03-05T10:29:35.409Z,74.58
2023-03-05T10:30:35.766Z,74.68
2023-03-05T10:31:35.699Z,74.58
2023-03-05T10:32:35.149Z,74.47
2023-03-05T10:33:35.254Z,74.37
2023-03-05T10:34:35.782Z,73.87
2023-03-05T10:35:36.514Z,74.12
2023-03-05T10:36:35.015Z,73.82
2023-03-05T10:37:35.182Z,73.61
2023-03-05T10:38:35.509Z,73.36
2023-03-05T10:39:35.376Z,73.30
2023-03-05T10:40:36.107Z,73.43
2023-03-05T10:41:35.150Z,73.38
2023-03-05T10:42:35.206Z,73.48
2023-03-05T10:43:35.834Z,73.64
2023-03-05T10:44:35.161Z,73.57
2023-03-05T10:45:35.711Z,73.58
2023-03-05T10:47:35.494Z,73.49
2023-03-05T10:48:35.527Z,73.26
2023-03-05T10:49:35.708Z,73.17
2023-03-05T10:50:35.899Z,73.08
2023-03-05T10:51:36.334Z,73.03
2023-03-05T10:52:54.025Z,72.95
2023-03-05T10:53:34.817Z,73.01
2023-03-05T10:54:34.017Z,72.94
2023-03-05T10:55:35.871Z,73.12
2023-03-05T10:56:36.318Z,73.26
2023-03-05T10:57:34.693Z,73.35
2023-03-05T10:58:38.089Z,73.40
2023-03-05T10:59:35.090Z,73.38
2023-03-05T11:01:07.897Z,73.27
2023-03-05T11:01:38.844Z,73.01
2023-03-05T11:02:38.965Z,73.00
2023-03-05T11:03:36.519Z,73.08
2023-03-05T11:04:37.947Z,73.16
2023-03-05T11:05:38.110Z,73.34
2023-03-05T11:06:37.374Z,73.15
2023-03-05T11:07:37.075Z,72.92
2023-03-05T11:08:37.785Z,73.21
2023-03-05T11:09:37.572Z,73.23
2023-03-05T11:10:36.402Z,73.17
2023-03-05T11:11:35.531Z,73.12
2023-03-05T11:12:35.467Z,73.23
2023-03-05T11:13:35.834Z,73.24
2023-03-05T11:14:35.677Z,73.05
2023-03-05T11:15:37.111Z,72.91
2023-03-05T11:16:35.421Z,73.06
2023-03-05T11:17:35.668Z,72.89
2023-03-05T11:19:36.043Z,73.04
2023-03-05T11:20:34.990Z,73.13
2023-03-05T11:21:35.625Z,73.19
2023-03-05T11:22:36.215Z,73.17
2023-03-05T11:23:35.720Z,73.15
2023-03-05T11:24:36.186Z,73.06
2023-03-05T11:25:35.329Z,73.34
2023-03-05T11:26:36.222Z,73.37
2023-03-05T11:27:35.773Z,73.36
2023-03-05T11:28:46.744Z,73.43
2023-03-05T11:29:35.641Z,73.43
2023-03-05T11:30:36.362Z,73.15
2023-03-05T11:31:35.748Z,73.01
2023-03-05T11:32:35.730Z,73.26
2023-03-05T11:33:35.339Z,73.56
2023-03-05T11:34:35.168Z,73.91
2023-03-05T11:35:35.878Z,74.17
2023-03-05T11:36:35.756Z,74.41
2023-03-05T11:37:36.237Z,74.66
2023-03-05T11:38:35.728Z,74.96
2023-03-05T11:39:35.418Z,75.44
2023-03-05T11:40:35.754Z,75.88
2023-03-05T11:41:35.483Z,76.42
2023-03-05T11:42:35.878Z,76.75
2023-03-05T11:43:35.671Z,77.10
2023-03-05T11:44:36.336Z,77.25
2023-03-05T11:45:35.377Z,77.58
2023-03-05T11:46:35.412Z,77.76
2023-03-05T11:47:34.755Z,77.88
2023-03-05T11:48:35.938Z,78.06
2023-03-05T11:49:36.232Z,78.24
2023-03-05T11:50:36.228Z,78.29
2023-03-05T11:51:35.488Z,78.22
2023-03-05T11:52:35.657Z,78.10
2023-03-05T11:53:35.623Z,77.91
2023-03-05T11:54:35.642Z,77.68
2023-03-05T11:55:36.182Z,77.66
2023-03-05T11:56:36.336Z,77.80
2023-03-05T11:57:34.419Z,77.83
2023-03-05T11:58:35.491Z,77.92
2023-03-05T11:59:36.289Z,78.01
2023-03-05T12:00:37.379Z,78.01
2023-03-05T12:01:36.077Z,77.98
2023-03-05T12:02:36.083Z,77.90
2023-03-05T12:03:35.843Z,77.88
2023-03-05T12:04:36.008Z,77.64
2023-03-05T12:05:36.459Z,77.40
2023-03-05T12:06:35.957Z,77.25
2023-03-05T12:07:35.687Z,77.19
2023-03-05T12:08:36.303Z,76.86
2023-03-05T12:09:35.467Z,76.59
2023-03-05T12:10:36.074Z,76.77
2023-03-05T12:11:35.642Z,76.90
2023-03-05T12:12:36.030Z,76.96
2023-03-05T12:13:35.706Z,76.97
2023-03-05T12:14:35.778Z,76.74
2023-03-05T12:15:41.189Z,76.64
2023-03-05T12:16:35.418Z,76.70
2023-03-05T12:17:35.551Z,76.58
2023-03-05T12:18:35.624Z,76.53
2023-03-05T12:19:43.232Z,76.54
2023-03-05T12:20:35.438Z,76.51
2023-03-05T12:21:43.401Z,76.40
2023-03-05T12:22:36.028Z,76.35
2023-03-05T12:23:35.994Z,76.22
2023-03-05T12:24:35.306Z,76.22
2023-03-05T12:25:37.251Z,76.34
2023-03-05T12:26:36.172Z,76.37
2023-03-05T12:27:35.940Z,76.30
2023-03-05T12:28:36.353Z,75.99
2023-03-05T12:29:35.308Z,75.81
2023-03-05T12:30:38.351Z,75.60
2023-03-05T12:31:36.323Z,75.38
2023-03-05T12:32:36.205Z,75.27
2023-03-05T12:33:35.812Z,75.12
2023-03-05T12:34:36.718Z,74.90
2023-03-05T12:35:36.594Z,74.88
2023-03-05T12:36:35.896Z,74.86
2023-03-05T12:37:36.425Z,74.87
2023-03-05T12:38:40.446Z,74.71
2023-03-05T12:39:36.436Z,74.58
2023-03-05T12:40:35.809Z,74.55
2023-03-05T12:41:50.160Z,74.38
2023-03-05T12:42:36.234Z,74.73
2023-03-05T12:43:54.223Z,74.77
2023-03-05T12:44:35.541Z,74.79
2023-03-05T12:45:35.801Z,74.87
2023-03-05T12:46:36.470Z,74.88
2023-03-05T12:47:35.832Z,74.96
2023-03-05T12:48:36.292Z,75.03
2023-03-05T12:49:35.507Z,75.14
2023-03-05T12:50:36.616Z,75.25
2023-03-05T12:51:35.949Z,75.31
2023-03-05T12:52:35.665Z,75.31
2023-03-05T12:53:35.690Z,75.36
2023-03-05T12:54:35.432Z,75.30
2023-03-05T12:55:36.095Z,75.34
2023-03-05T12:56:35.397Z,75.38